Allenhurst, Georgia
Current Conditions -  °F | °C
As of 10:58 AM on Tuesday 21 Oct 2014 (Local Time) from KLHW Reporting Station
Clear Clear  
Wind Chill: 24°   Ceiling: Unl
Heat Index: 24°   Visibility: 10mi
Dew Point: 12°   Wind: 8mph
Humidity: 49%   Direction: 330°NNW
Pressure: 29.99"   Gusts: NA
Location:  31.78°N, 81.61°W
Report Text: KLHW 211458Z AUTO 33007KT 10SM CLR 24/12 A2999 RMK AO2 SLP158 T02360122 50007
Loading
Personal Weather Stations






























Interactive Weather Map
Tropical Storm Tracking
New forecast layout! Learn more

10-Day Weather Forecast

Advertisements
Track Severe Weather on mobile